Time,TemperatureF,DewpointF,PressureIn,WindDirection,WindDirectionDegrees,WindSpeedMPH,WindSpeedGustMPH,Humidity,HourlyPrecipIn,Conditions,Clouds,dailyrainin,SoftwareType,DateUTC
2013-12-12 00:13:00,27.9,23.0,30.29,NW,307,0.0,-999.0,82,-99.99,,,0.03,weatherlink.com 1.10,2013-12-12 05:13:00,
2013-12-12 00:27:00,27.6,23.0,30.29,NW,311,3.0,-999.0,82,-99.99,,,0.03,weatherlink.com 1.10,2013-12-12 05:27:00,
2013-12-12 00:42:00,27.5,23.0,30.29,NW,309,1.0,-999.0,82,-99.99,,,0.03,weatherlink.com 1.10,2013-12-12 05:42:00,
2013-12-12 00:57:00,27.3,23.0,30.28,WNW,296,1.0,-999.0,82,-99.99,,,0.03,weatherlink.com 1.10,2013-12-12 05:57:00,
2013-12-12 01:12:00,27.1,22.0,30.28,NW,309,0.0,-999.0,82,-99.99,,,0.00,weatherlink.com 1.10,2013-12-12 06:12:00,
2013-12-12 01:27:00,26.9,22.0,30.28,NW,313,0.0,-999.0,82,-99.99,,,0.00,weatherlink.com 1.10,2013-12-12 06:27:00,
2013-12-12 01:42:00,26.6,22.0,30.29,NNW,328,0.0,-999.0,82,-99.99,,,0.00,weatherlink.com 1.10,2013-12-12 06:42:00,
2013-12-12 01:58:00,26.6,22.0,30.29,NW,309,1.0,-999.0,83,-99.99,,,0.00,weatherlink.com 1.10,2013-12-12 06:58:00,
2013-12-12 02:13:00,26.7,22.0,30.30,WNW,291,3.0,-999.0,82,-99.99,,,0.00,weatherlink.com 1.10,2013-12-12 07:13:00,
2013-12-12 02:28:00,26.9,22.0,30.30,South,170,0.0,-999.0,82,-99.99,,,0.00,weatherlink.com 1.10,2013-12-12 07:28:00,
2013-12-12 02:43:00,27.1,22.0,30.30,NW,311,0.0,-999.0,81,-99.99,,,0.00,weatherlink.com 1.10,2013-12-12 07:43:00,
2013-12-12 02:58:00,27.2,22.0,30.30,North,360,4.0,-999.0,80,-99.99,,,0.00,weatherlink.com 1.10,2013-12-12 07:58:00,
2013-12-12 03:13:00,27.5,22.0,30.31,West,265,1.0,-999.0,79,-99.99,,,0.00,weatherlink.com 1.10,2013-12-12 08:13:00,
2013-12-12 03:28:00,27.3,21.0,30.30,NW,309,0.0,-999.0,78,-99.99,,,0.00,weatherlink.com 1.10,2013-12-12 08:28:00,
2013-12-12 03:43:00,27.5,22.0,30.31,WNW,301,0.0,-999.0,79,-99.99,,,0.00,weatherlink.com 1.10,2013-12-12 08:43:00,
2013-12-12 03:58:00,27.5,22.0,30.30,NNE,17,0.0,-999.0,79,-99.99,,,0.00,weatherlink.com 1.10,2013-12-12 08:58:00,
2013-12-12 04:13:00,27.2,22.0,30.31,North,350,0.0,-999.0,79,-99.99,,,0.00,weatherlink.com 1.10,2013-12-12 09:13:00,
2013-12-12 04:28:00,27.0,21.0,30.31,WNW,296,0.0,-999.0,79,-99.99,,,0.00,weatherlink.com 1.10,2013-12-12 09:28:00,
2013-12-12 04:43:00,26.5,21.0,30.31,WNW,290,0.0,-999.0,80,-99.99,,,0.00,weatherlink.com 1.10,2013-12-12 09:43:00,
2013-12-12 04:59:00,25.7,21.0,30.31,WNW,296,4.0,-999.0,81,-99.99,,,0.00,weatherlink.com 1.10,2013-12-12 09:59:00,
2013-12-12 05:14:00,25.1,20.0,30.32,NW,316,4.0,-999.0,82,-99.99,,,0.00,weatherlink.com 1.10,2013-12-12 10:14:00,
2013-12-12 05:29:00,24.8,20.0,30.32,SSW,192,1.0,-999.0,83,-99.99,,,0.00,weatherlink.com 1.10,2013-12-12 10:29:00,
2013-12-12 05:44:00,24.9,20.0,30.32,West,276,0.0,-999.0,83,-99.99,,,0.00,weatherlink.com 1.10,2013-12-12 10:44:00,
2013-12-12 05:59:00,24.9,20.0,30.33,NNW,329,0.0,-999.0,83,-99.99,,,0.00,weatherlink.com 1.10,2013-12-12 10:59:00,
2013-12-12 06:14:00,24.8,20.0,30.34,WNW,290,0.0,-999.0,83,-99.99,,,0.00,weatherlink.com 1.10,2013-12-12 11:14:00,
2013-12-12 06:29:00,24.6,20.0,30.34,WNW,285,0.0,-999.0,84,-99.99,,,0.00,weatherlink.com 1.10,2013-12-12 11:29:00,
2013-12-12 06:44:00,24.5,20.0,30.35,NE,35,0.0,-999.0,83,-99.99,,,0.00,weatherlink.com 1.10,2013-12-12 11:44:00,
2013-12-12 06:59:00,24.3,20.0,30.35,WSW,251,2.0,-999.0,84,-99.99,,,0.00,weatherlink.com 1.10,2013-12-12 11:59:00,
2013-12-12 07:14:00,24.3,20.0,30.36,ESE,120,1.0,-999.0,83,-99.99,,,0.00,weatherlink.com 1.10,2013-12-12 12:14:00,
2013-12-12 07:29:00,24.7,20.0,30.36,SSW,204,0.0,-999.0,83,-99.99,,,0.00,weatherlink.com 1.10,2013-12-12 12:29:00,
2013-12-12 07:45:00,25.5,21.0,30.37,NW,317,2.0,-999.0,82,-99.99,,,0.00,weatherlink.com 1.10,2013-12-12 12:45:00,
2013-12-12 08:00:00,25.5,20.0,30.38,WSW,250,3.0,-999.0,80,-99.99,,,0.00,weatherlink.com 1.10,2013-12-12 13:00:00,
2013-12-12 08:15:00,25.4,20.0,30.38,ESE,108,0.0,-999.0,80,-99.99,,,0.00,weatherlink.com 1.10,2013-12-12 13:15:00,
2013-12-12 08:30:00,25.4,20.0,30.40,ENE,77,0.0,-999.0,80,-99.99,,,0.00,weatherlink.com 1.10,2013-12-12 13:30:00,
2013-12-12 08:45:00,25.6,20.0,30.40,NNW,337,1.0,-999.0,79,-99.99,,,0.00,weatherlink.com 1.10,2013-12-12 13:45:00,
2013-12-12 09:00:00,25.7,20.0,30.41,NE,50,0.0,-999.0,79,-99.99,,,0.00,weatherlink.com 1.10,2013-12-12 14:00:00,
2013-12-12 09:15:00,25.8,20.0,30.41,NNE,31,0.0,-999.0,78,-99.99,,,0.00,weatherlink.com 1.10,2013-12-12 14:15:00,
2013-12-12 09:30:00,25.9,19.0,30.41,East,92,5.0,-999.0,74,-99.99,,,0.00,weatherlink.com 1.10,2013-12-12 14:30:00,
2013-12-12 09:45:00,26.1,19.0,30.41,SW,234,3.0,-999.0,74,-99.99,,,0.00,weatherlink.com 1.10,2013-12-12 14:45:00,
2013-12-12 10:00:00,26.9,19.0,30.41,WNW,287,3.0,-999.0,72,-99.99,,,0.00,weatherlink.com 1.10,2013-12-12 15:00:00,
2013-12-12 10:15:00,26.9,19.0,30.41,SSW,198,6.0,-999.0,71,-99.99,,,0.00,weatherlink.com 1.10,2013-12-12 15:15:00,
2013-12-12 10:31:00,26.9,17.0,30.41,North,360,5.0,-999.0,67,-99.99,,,0.00,weatherlink.com 1.10,2013-12-12 15:31:00,
2013-12-12 10:46:00,27.0,17.0,30.40,NW,314,1.0,-999.0,65,-99.99,,,0.00,weatherlink.com 1.10,2013-12-12 15:46:00,
2013-12-12 11:01:00,27.6,16.0,30.39,WNW,295,4.0,-999.0,63,-99.99,,,0.00,weatherlink.com 1.10,2013-12-12 16:01:00,
2013-12-12 11:16:00,28.5,16.0,30.39,NW,309,3.0,-999.0,61,-99.99,,,0.00,weatherlink.com 1.10,2013-12-12 16:16:00,
2013-12-12 11:31:00,28.3,15.0,30.38,WNW,299,7.0,-999.0,59,-99.99,,,0.00,weatherlink.com 1.10,2013-12-12 16:31:00,
2013-12-12 11:46:00,28.1,15.0,30.37,SW,229,0.0,-999.0,59,-99.99,,,0.00,weatherlink.com 1.10,2013-12-12 16:46:00,
2013-12-12 12:01:00,29.0,15.0,30.37,WNW,300,5.0,-999.0,55,-99.99,,,0.00,weatherlink.com 1.10,2013-12-12 17:01:00,
2013-12-12 12:16:00,30.2,16.0,30.36,WNW,283,3.0,-999.0,55,-99.99,,,0.00,weatherlink.com 1.10,2013-12-12 17:16:00,
2013-12-12 12:31:00,31.3,16.0,30.36,SSE,156,1.0,-999.0,54,-99.99,,,0.00,weatherlink.com 1.10,2013-12-12 17:31:00,
2013-12-12 12:46:00,29.7,16.0,30.35,WNW,296,0.0,-999.0,56,-99.99,,,0.00,weatherlink.com 1.10,2013-12-12 17:46:00,
2013-12-12 13:02:00,30.6,16.0,30.35,North,11,3.0,-999.0,54,-99.99,,,0.00,weatherlink.com 1.10,2013-12-12 18:02:00,
2013-12-12 13:17:00,30.9,15.0,30.34,WNW,286,5.0,-999.0,53,-99.99,,,0.00,weatherlink.com 1.10,2013-12-12 18:17:00,
2013-12-12 13:32:00,30.8,15.0,30.34,NNW,334,4.0,-999.0,53,-99.99,,,0.00,weatherlink.com 1.10,2013-12-12 18:32:00,
2013-12-12 13:47:00,31.5,16.0,30.33,NW,308,8.0,-999.0,54,-99.99,,,0.00,weatherlink.com 1.10,2013-12-12 18:47:00,
2013-12-12 14:02:00,31.0,16.0,30.32,NW,315,4.0,-999.0,54,-99.99,,,0.00,weatherlink.com 1.10,2013-12-12 19:02:00,
2013-12-12 14:17:00,30.7,16.0,30.33,NNW,334,7.0,-999.0,55,-99.99,,,0.00,weatherlink.com 1.10,2013-12-12 19:17:00,
2013-12-12 14:32:00,30.8,15.0,30.33,WNW,288,6.0,-999.0,53,-99.99,,,0.00,weatherlink.com 1.10,2013-12-12 19:32:00,
2013-12-12 14:47:00,28.6,14.0,30.33,WNW,286,6.0,-999.0,55,-99.99,,,0.00,weatherlink.com 1.10,2013-12-12 19:47:00,
2013-12-12 15:02:00,28.7,15.0,30.33,NW,318,10.0,-999.0,57,-99.99,,,0.00,weatherlink.com 1.10,2013-12-12 20:02:00,
2013-12-12 15:17:00,28.2,15.0,30.33,NW,304,6.0,-999.0,58,-99.99,,,0.00,weatherlink.com 1.10,2013-12-12 20:17:00,
2013-12-12 15:32:00,28.3,15.0,30.32,WNW,296,6.0,-999.0,59,-99.99,,,0.00,weatherlink.com 1.10,2013-12-12 20:32:00,
2013-12-12 15:47:00,28.4,15.0,30.33,NW,304,4.0,-999.0,58,-99.99,,,0.00,weatherlink.com 1.10,2013-12-12 20:47:00,
2013-12-12 16:02:00,28.2,16.0,30.33,WNW,284,4.0,-999.0,61,-99.99,,,0.00,weatherlink.com 1.10,2013-12-12 21:02:00,
2013-12-12 16:17:00,27.4,16.0,30.33,WNW,290,2.0,-999.0,62,-99.99,,,0.00,weatherlink.com 1.10,2013-12-12 21:17:00,
2013-12-12 16:33:00,26.8,16.0,30.33,WNW,290,2.0,-999.0,63,-99.99,,,0.00,weatherlink.com 1.10,2013-12-12 21:33:00,
2013-12-12 16:48:00,26.4,16.0,30.33,West,265,2.0,-999.0,66,-99.99,,,0.00,weatherlink.com 1.10,2013-12-12 21:48:00,
2013-12-12 17:03:00,27.2,17.0,30.34,West,279,2.0,-999.0,66,-99.99,,,0.00,weatherlink.com 1.10,2013-12-12 22:03:00,
2013-12-12 17:18:00,26.7,16.0,30.34,West,278,6.0,-999.0,65,-99.99,,,0.00,weatherlink.com 1.10,2013-12-12 22:18:00,
2013-12-12 17:33:00,25.9,16.0,30.33,West,273,7.0,-999.0,67,-99.99,,,0.00,weatherlink.com 1.10,2013-12-12 22:33:00,
2013-12-12 17:48:00,25.6,16.0,30.34,WNW,286,5.0,-999.0,66,-99.99,,,0.00,weatherlink.com 1.10,2013-12-12 22:48:00,
2013-12-12 18:03:00,25.5,15.0,30.34,West,281,4.0,-999.0,64,-99.99,,,0.00,weatherlink.com 1.10,2013-12-12 23:03:00,
2013-12-12 18:18:00,25.2,15.0,30.34,West,275,3.0,-999.0,64,-99.99,,,0.00,weatherlink.com 1.10,2013-12-12 23:18:00,
2013-12-12 18:33:00,25.3,15.0,30.35,WNW,292,5.0,-999.0,64,-99.99,,,0.00,weatherlink.com 1.10,2013-12-12 23:33:00,
2013-12-12 18:48:00,25.3,14.0,30.34,WNW,290,4.0,-999.0,63,-99.99,,,0.00,weatherlink.com 1.10,2013-12-12 23:48:00,
2013-12-12 19:03:00,25.1,14.0,30.35,West,278,7.0,-999.0,64,-99.99,,,0.00,weatherlink.com 1.10,2013-12-13 00:03:00,
2013-12-12 19:18:00,24.9,15.0,30.35,WNW,287,3.0,-999.0,65,-99.99,,,0.00,weatherlink.com 1.10,2013-12-13 00:18:00,
2013-12-12 19:33:00,24.5,15.0,30.34,West,270,5.0,-999.0,66,-99.99,,,0.00,weatherlink.com 1.10,2013-12-13 00:33:00,
2013-12-12 19:49:00,23.7,15.0,30.34,West,275,5.0,-999.0,69,-99.99,,,0.00,weatherlink.com 1.10,2013-12-13 00:49:00,
2013-12-12 20:04:00,23.2,15.0,30.34,West,279,3.0,-999.0,71,-99.99,,,0.00,weatherlink.com 1.10,2013-12-13 01:04:00,
2013-12-12 20:19:00,22.9,15.0,30.34,West,279,4.0,-999.0,72,-99.99,,,0.00,weatherlink.com 1.10,2013-12-13 01:19:00,
2013-12-12 20:34:00,22.8,15.0,30.33,WNW,288,5.0,-999.0,72,-99.99,,,0.00,weatherlink.com 1.10,2013-12-13 01:34:00,
2013-12-12 20:49:00,22.5,15.0,30.32,West,263,3.0,-999.0,73,-99.99,,,0.00,weatherlink.com 1.10,2013-12-13 01:49:00,
2013-12-12 21:04:00,22.6,15.0,30.32,West,275,5.0,-999.0,73,-99.99,,,0.00,weatherlink.com 1.10,2013-12-13 02:04:00,
2013-12-12 21:19:00,22.6,15.0,30.31,West,275,5.0,-999.0,73,-99.99,,,0.00,weatherlink.com 1.10,2013-12-13 02:19:00,
2013-12-12 21:34:00,22.9,15.0,30.31,West,275,4.0,-999.0,72,-99.99,,,0.00,weatherlink.com 1.10,2013-12-13 02:34:00,
2013-12-12 21:49:00,23.0,15.0,30.31,West,271,5.0,-999.0,72,-99.99,,,0.00,weatherlink.com 1.10,2013-12-13 02:49:00,
2013-12-12 22:04:00,22.9,15.0,30.31,West,266,3.0,-999.0,72,-99.99,,,0.00,weatherlink.com 1.10,2013-12-13 03:04:00,
2013-12-12 22:19:00,22.9,15.0,30.30,West,265,2.0,-999.0,73,-99.99,,,0.00,weatherlink.com 1.10,2013-12-13 03:19:00,
2013-12-12 22:34:00,22.9,15.0,30.29,West,271,4.0,-999.0,73,-99.99,,,0.00,weatherlink.com 1.10,2013-12-13 03:34:00,
2013-12-12 22:50:00,22.8,16.0,30.29,West,278,4.0,-999.0,74,-99.99,,,0.00,weatherlink.com 1.10,2013-12-13 03:50:00,
2013-12-12 23:05:00,22.9,16.0,30.28,West,271,5.0,-999.0,74,-99.99,,,0.00,weatherlink.com 1.10,2013-12-13 04:05:00,
2013-12-12 23:20:00,23.0,16.0,30.28,West,275,3.0,-999.0,74,-99.99,,,0.00,weatherlink.com 1.10,2013-12-13 04:20:00,
2013-12-12 23:35:00,22.8,16.0,30.27,West,275,4.0,-999.0,74,-99.99,,,0.00,weatherlink.com 1.10,2013-12-13 04:35:00,
2013-12-12 23:50:00,22.6,16.0,30.26,West,277,5.0,-999.0,75,-99.99,,,0.00,weatherlink.com 1.10,2013-12-13 04:50:00,